createdAt,value
2017-12-04T00:02:20.636Z,25.95
2017-12-04T00:04:48.430Z,30.45
2017-12-04T00:07:16.706Z,26.58
2017-12-04T00:09:45.381Z,24.02
2017-12-04T00:12:13.432Z,28.50
2017-12-04T00:14:41.086Z,27.65
2017-12-04T00:17:09.791Z,23.08
2017-12-04T00:19:37.435Z,21.50
2017-12-04T00:22:05.110Z,24.90
2017-12-04T00:24:32.778Z,27.25
2017-12-04T00:27:00.423Z,25.88
2017-12-04T00:29:28.218Z,24.15
2017-12-04T00:31:55.841Z,29.45
2017-12-04T00:34:23.505Z,27.02
2017-12-04T00:40:22.318Z,28.27
2017-12-04T00:42:49.988Z,25.10
2017-12-04T00:45:17.630Z,27.87
2017-12-04T00:47:45.374Z,28.67
2017-12-04T00:50:13.101Z,25.77
2017-12-04T00:52:40.782Z,26.90
2017-12-04T00:55:08.689Z,23.80
2017-12-04T00:57:36.324Z,30.50
2017-12-04T01:00:04.747Z,26.85
2017-12-04T01:02:32.391Z,25.15
2017-12-04T01:05:01.358Z,21.60
2017-12-04T01:07:29.898Z,24.63
2017-12-04T01:09:57.518Z,24.37
2017-12-04T01:12:25.218Z,25.40
2017-12-04T01:14:52.872Z,24.75
2017-12-04T01:17:20.533Z,22.45
2017-12-04T01:19:48.339Z,29.00
2017-12-04T01:22:16.026Z,24.92
2017-12-04T01:24:43.726Z,28.38
2017-12-04T01:27:11.440Z,26.02
2017-12-04T01:29:39.103Z,27.10
2017-12-04T01:32:06.735Z,28.02
2017-12-04T01:34:34.353Z,27.75
2017-12-04T01:37:02.033Z,27.85
2017-12-04T01:39:29.761Z,29.67
2017-12-04T01:41:57.438Z,25.40
2017-12-04T01:44:25.078Z,23.90
2017-12-04T01:46:52.703Z,26.10
2017-12-04T01:49:20.410Z,22.90
2017-12-04T01:51:48.345Z,24.63
2017-12-04T01:54:16.019Z,23.90
2017-12-04T01:56:43.714Z,24.48
2017-12-04T01:59:11.371Z,26.83
2017-12-04T02:01:39.042Z,25.70
2017-12-04T02:04:06.694Z,24.87
2017-12-04T02:06:34.351Z,26.35
2017-12-04T02:09:01.992Z,23.52
2017-12-04T02:11:29.817Z,23.95
2017-12-04T02:13:58.411Z,26.35
2017-12-04T02:16:26.066Z,23.75
2017-12-04T02:18:53.744Z,28.45
2017-12-04T02:21:21.378Z,26.25
2017-12-04T02:23:49.008Z,23.67
2017-12-04T02:26:16.712Z,20.92
2017-12-04T02:28:44.338Z,21.67
2017-12-04T02:31:11.969Z,23.92
2017-12-04T02:33:39.837Z,25.85
2017-12-04T02:36:07.518Z,19.80
2017-12-04T02:38:35.234Z,19.67
2017-12-04T02:41:02.888Z,21.80
2017-12-04T02:43:30.778Z,19.35
2017-12-04T02:45:58.574Z,24.37
2017-12-04T02:48:26.251Z,22.58
2017-12-04T02:50:54.686Z,24.12
2017-12-04T02:53:22.357Z,23.65
2017-12-04T02:55:50.769Z,19.62
2017-12-04T02:58:19.521Z,18.87
2017-12-04T03:00:47.156Z,18.95
2017-12-04T03:03:14.830Z,24.30
2017-12-04T03:05:42.469Z,21.58
2017-12-04T03:08:10.102Z,22.37
2017-12-04T03:10:37.796Z,20.83
2017-12-04T03:13:05.474Z,22.52
2017-12-04T03:15:33.210Z,20.30
2017-12-04T03:18:00.871Z,23.65
2017-12-04T03:20:28.558Z,24.33
2017-12-04T03:22:56.763Z,22.70
2017-12-04T03:25:24.391Z,23.48
2017-12-04T03:27:52.023Z,23.17
2017-12-04T03:30:19.811Z,31.62
2017-12-04T03:32:47.490Z,23.90
2017-12-04T03:35:15.165Z,26.55
2017-12-04T03:37:42.846Z,27.27
2017-12-04T03:40:10.514Z,21.40
2017-12-04T03:42:38.905Z,28.25
2017-12-04T03:45:06.594Z,30.30
2017-12-04T03:47:34.291Z,29.40
2017-12-04T03:50:01.968Z,30.58
2017-12-04T03:52:29.815Z,26.80
2017-12-04T03:54:57.443Z,39.53
2017-12-04T03:57:25.142Z,23.67
2017-12-04T03:59:53.622Z,22.80
2017-12-04T04:02:22.030Z,21.60
2017-12-04T04:04:49.821Z,23.70
2017-12-04T04:07:17.517Z,28.52
2017-12-04T04:09:45.219Z,29.67
2017-12-04T04:12:12.866Z,31.37
2017-12-04T04:14:41.340Z,26.35
2017-12-04T04:17:08.958Z,26.75
2017-12-04T04:19:36.599Z,29.80
2017-12-04T04:22:04.269Z,32.58
2017-12-04T04:24:31.894Z,28.87
2017-12-04T04:26:59.615Z,28.70
2017-12-04T04:29:27.278Z,23.75
2017-12-04T04:31:54.943Z,29.17
2017-12-04T04:34:22.603Z,28.08
2017-12-04T04:36:50.263Z,28.30
2017-12-04T04:39:18.822Z,26.25
2017-12-04T04:41:46.457Z,32.72
2017-12-04T04:44:14.216Z,27.85
2017-12-04T04:46:41.886Z,29.63
2017-12-04T04:49:09.992Z,31.42
2017-12-04T04:51:38.725Z,28.98
2017-12-04T04:54:06.358Z,27.20
2017-12-04T04:56:34.083Z,27.20
2017-12-04T04:59:01.774Z,26.33
2017-12-04T05:01:29.493Z,28.90
2017-12-04T05:03:57.162Z,29.08
2017-12-04T05:06:24.795Z,32.10
2017-12-04T05:08:52.433Z,29.58
2017-12-04T05:11:20.119Z,31.92
2017-12-04T05:13:47.875Z,33.35
2017-12-04T05:16:15.653Z,29.30
2017-12-04T05:18:43.330Z,31.12
2017-12-04T05:21:11.730Z,29.08
2017-12-04T05:23:39.477Z,32.42
2017-12-04T05:26:07.890Z,33.20
2017-12-04T05:28:35.566Z,29.65
2017-12-04T05:31:03.967Z,23.67
2017-12-04T05:33:31.595Z,23.50
2017-12-04T05:35:59.377Z,23.90
2017-12-04T05:38:27.026Z,23.80
2017-12-04T05:40:54.679Z,28.87
2017-12-04T05:43:22.319Z,31.50
2017-12-04T05:45:50.062Z,27.70
2017-12-04T05:48:17.921Z,30.48
2017-12-04T05:50:45.595Z,28.45
2017-12-04T05:53:13.277Z,22.70
2017-12-04T05:55:40.958Z,26.90
2017-12-04T05:58:08.795Z,28.73
2017-12-04T06:00:36.455Z,26.30
2017-12-04T06:03:04.079Z,28.87
2017-12-04T06:05:31.787Z,28.45
2017-12-04T06:07:59.558Z,29.33
2017-12-04T06:10:27.192Z,23.38
2017-12-04T06:12:55.606Z,27.70
2017-12-04T06:15:23.257Z,26.35
2017-12-04T06:17:50.905Z,32.15
2017-12-04T06:20:19.408Z,24.45
2017-12-04T06:22:47.220Z,25.50
2017-12-04T06:25:14.881Z,27.77
2017-12-04T06:27:42.502Z,26.50
2017-12-04T06:30:10.182Z,22.13
2017-12-04T06:32:37.874Z,23.83
2017-12-04T06:35:05.502Z,21.52
2017-12-04T06:37:33.931Z,20.62
2017-12-04T06:40:01.569Z,21.77
2017-12-04T06:42:30.129Z,20.90
2017-12-04T06:44:57.790Z,25.50
2017-12-04T06:47:25.871Z,20.20
2017-12-04T06:49:53.518Z,19.27
2017-12-04T06:52:21.237Z,22.15
2017-12-04T06:54:48.890Z,27.80
2017-12-04T06:57:16.506Z,28.25
2017-12-04T06:59:44.141Z,23.42
2017-12-04T07:02:11.801Z,21.77
2017-12-04T07:04:39.450Z,21.33
2017-12-04T07:07:07.110Z,21.48
2017-12-04T07:09:34.736Z,21.60
2017-12-04T07:12:02.369Z,22.20
2017-12-04T07:14:30.038Z,22.45
2017-12-04T07:16:57.716Z,22.20
2017-12-04T07:19:25.382Z,25.77
2017-12-04T07:21:52.995Z,18.67
2017-12-04T07:24:20.611Z,23.10
2017-12-04T07:26:48.366Z,26.62
2017-12-04T07:29:15.977Z,19.37
2017-12-04T07:31:44.401Z,17.85
2017-12-04T07:34:12.033Z,20.70
2017-12-04T07:36:39.841Z,15.48
2017-12-04T07:39:07.501Z,14.68
2017-12-04T07:41:35.126Z,18.70
2017-12-04T07:44:02.822Z,15.85
2017-12-04T07:46:30.449Z,15.73
2017-12-04T07:48:58.207Z,16.98
2017-12-04T07:51:25.849Z,14.95
2017-12-04T07:53:53.486Z,13.93
2017-12-04T07:56:21.213Z,15.13
2017-12-04T07:58:48.834Z,14.85
2017-12-04T08:01:16.462Z,14.95
2017-12-04T08:03:44.118Z,17.12
2017-12-04T08:06:11.735Z,20.00
2017-12-04T08:08:39.401Z,15.77
2017-12-04T08:11:07.031Z,17.42
2017-12-04T08:13:34.657Z,20.30
2017-12-04T08:16:03.084Z,23.98
2017-12-04T08:18:30.701Z,21.42
2017-12-04T08:20:58.596Z,20.48
2017-12-04T08:23:27.028Z,20.02
2017-12-04T08:25:54.660Z,21.70
2017-12-04T08:28:22.315Z,22.98
2017-12-04T08:30:49.974Z,20.98
2017-12-04T08:33:17.780Z,24.90
2017-12-04T08:35:45.468Z,26.98
2017-12-04T08:38:13.135Z,26.95
2017-12-04T08:40:40.790Z,24.67
2017-12-04T08:43:08.623Z,27.98
2017-12-04T08:45:36.287Z,24.87
2017-12-04T08:48:03.918Z,21.95
2017-12-04T08:50:31.554Z,23.10
2017-12-04T08:52:59.388Z,22.48
2017-12-04T08:55:27.035Z,22.87
2017-12-04T08:57:54.694Z,23.70
2017-12-04T09:00:22.319Z,24.92
2017-12-04T09:02:49.958Z,21.48
2017-12-04T09:05:17.774Z,22.17
2017-12-04T09:07:45.424Z,28.23
2017-12-04T09:10:13.841Z,20.58
2017-12-04T09:12:41.486Z,22.92
2017-12-04T09:15:09.251Z,21.23
2017-12-04T09:17:36.912Z,16.50
2017-12-04T09:20:04.531Z,18.70
2017-12-04T09:22:32.574Z,17.02
2017-12-04T09:25:00.210Z,16.12
2017-12-04T09:27:28.054Z,16.17
2017-12-04T09:29:55.709Z,15.95
2017-12-04T09:32:23.351Z,19.95
2017-12-04T09:34:51.022Z,21.85
2017-12-04T09:37:18.754Z,22.37
2017-12-04T09:39:46.378Z,24.48
2017-12-04T09:42:14.808Z,25.52
2017-12-04T09:44:42.428Z,25.02
2017-12-04T09:47:10.084Z,24.20
2017-12-04T09:49:37.786Z,19.73
2017-12-04T09:52:06.179Z,22.35
2017-12-04T09:54:33.843Z,25.95
2017-12-04T09:57:01.529Z,24.67
2017-12-04T09:59:29.962Z,25.48
2017-12-04T10:01:57.634Z,21.48
2017-12-04T10:04:25.310Z,22.30
2017-12-04T10:06:53.027Z,20.52
2017-12-04T10:09:20.642Z,22.83
2017-12-04T10:11:48.345Z,18.25
2017-12-04T10:14:16.727Z,14.98
2017-12-04T10:16:44.341Z,16.37
2017-12-04T10:19:12.799Z,18.67
2017-12-04T10:21:40.421Z,18.20
2017-12-04T10:24:08.149Z,19.30
2017-12-04T10:26:35.809Z,12.00
2017-12-04T10:29:03.437Z,19.25
2017-12-04T10:31:31.094Z,18.80
2017-12-04T10:33:58.755Z,17.45
2017-12-04T10:36:26.414Z,15.68
2017-12-04T10:38:54.044Z,16.50
2017-12-04T10:41:21.680Z,14.27
2017-12-04T10:43:49.370Z,15.38
2017-12-04T10:46:16.992Z,16.17
2017-12-04T10:48:44.701Z,15.68
2017-12-04T10:51:13.068Z,16.65
2017-12-04T10:53:40.696Z,13.57
2017-12-04T10:56:09.116Z,14.23
2017-12-04T10:58:37.069Z,15.38
2017-12-04T11:01:05.127Z,16.33
2017-12-04T11:03:32.848Z,12.85
2017-12-04T11:06:00.474Z,17.17
2017-12-04T11:08:28.408Z,14.60
2017-12-04T11:10:56.791Z,13.38
2017-12-04T11:13:24.457Z,14.73
2017-12-04T11:15:52.073Z,16.10
2017-12-04T11:18:20.462Z,14.85
2017-12-04T11:20:49.011Z,13.65
2017-12-04T11:23:17.854Z,11.57
2017-12-04T11:25:45.542Z,14.13
2017-12-04T11:28:13.184Z,15.43
2017-12-04T11:30:40.807Z,15.20
2017-12-04T11:33:09.300Z,12.75
2017-12-04T11:35:36.950Z,17.45
2017-12-04T11:38:04.798Z,12.95
2017-12-04T11:40:32.559Z,15.98
2017-12-04T11:43:00.284Z,13.90
2017-12-04T11:45:27.975Z,17.70
2017-12-04T11:47:55.604Z,18.67
2017-12-04T11:50:23.259Z,15.95
2017-12-04T11:52:50.894Z,14.43
2017-12-04T11:55:18.681Z,17.58
2017-12-04T11:57:46.604Z,21.77
2017-12-04T12:00:14.239Z,16.10
2017-12-04T12:02:41.912Z,14.35
2017-12-04T12:05:09.773Z,18.27
2017-12-04T12:07:37.405Z,20.92
2017-12-04T12:10:05.045Z,11.60
2017-12-04T12:12:32.661Z,14.93
2017-12-04T12:15:00.318Z,13.48
2017-12-04T12:17:27.955Z,15.43
2017-12-04T12:19:55.591Z,18.08
2017-12-04T12:22:24.059Z,18.20
2017-12-04T12:24:52.438Z,15.02
2017-12-04T12:27:20.094Z,17.90
2017-12-04T12:29:47.809Z,18.15
2017-12-04T12:32:16.293Z,19.52
2017-12-04T12:34:43.962Z,22.35
2017-12-04T12:37:11.631Z,17.37
2017-12-04T12:39:39.442Z,17.77
2017-12-04T12:42:07.068Z,19.55
2017-12-04T12:44:35.466Z,16.08
2017-12-04T12:47:03.119Z,13.73
2017-12-04T12:49:30.741Z,15.13
2017-12-04T12:51:58.422Z,11.18
2017-12-04T12:54:26.038Z,7.37
2017-12-04T12:56:53.693Z,8.07
2017-12-04T12:59:21.337Z,4.82
2017-12-04T13:01:48.951Z,6.82
2017-12-04T13:04:16.603Z,4.10
2017-12-04T13:06:45.022Z,5.47
2017-12-04T13:09:12.650Z,3.33
2017-12-04T13:11:40.386Z,3.75
2017-12-04T13:14:08.069Z,2.20
2017-12-04T13:16:35.712Z,3.58
2017-12-04T13:19:03.329Z,3.17
2017-12-04T13:21:31.141Z,6.60
2017-12-04T13:23:58.806Z,4.05
2017-12-04T13:26:27.191Z,6.03
2017-12-04T13:28:54.888Z,5.95
2017-12-04T13:31:22.841Z,7.12
2017-12-04T13:34:02.343Z,10.30
2017-12-04T13:36:40.321Z,11.35
2017-12-04T13:39:08.001Z,11.48
2017-12-04T13:41:35.621Z,15.30
2017-12-04T13:44:03.225Z,9.15
2017-12-04T13:46:30.919Z,14.15
2017-12-04T13:48:58.753Z,10.43
2017-12-04T13:51:26.394Z,8.30
2017-12-04T13:53:54.014Z,7.47
2017-12-04T13:56:21.642Z,12.37
2017-12-04T13:58:49.421Z,10.52
2017-12-04T14:01:17.038Z,7.25
2017-12-04T14:03:44.695Z,9.75
2017-12-04T14:06:13.097Z,11.00
2017-12-04T14:08:40.709Z,7.25
2017-12-04T14:11:08.562Z,5.93
2017-12-04T14:13:36.180Z,9.68
2017-12-04T14:16:03.831Z,7.60
2017-12-04T14:18:31.445Z,9.45
2017-12-04T14:20:59.258Z,7.30
2017-12-04T14:23:27.412Z,11.40
2017-12-04T14:25:55.224Z,4.95
2017-12-04T14:28:22.880Z,7.97
2017-12-04T14:30:50.501Z,4.97
2017-12-04T14:33:18.178Z,4.72
2017-12-04T14:35:45.829Z,6.55
2017-12-04T14:38:13.450Z,5.00
2017-12-04T14:40:41.124Z,8.60
2017-12-04T14:43:08.737Z,10.43
2017-12-04T14:45:36.392Z,8.05
2017-12-04T14:48:04.032Z,6.93
2017-12-04T14:50:31.657Z,7.95
2017-12-04T14:52:59.350Z,7.47
2017-12-04T14:55:26.987Z,7.72
2017-12-04T14:57:54.594Z,7.57
2017-12-04T15:00:22.239Z,14.20
2017-12-04T15:02:49.857Z,7.68
2017-12-04T15:05:17.513Z,8.52
2017-12-04T15:07:45.345Z,10.93
2017-12-04T15:10:13.730Z,7.60
2017-12-04T15:12:41.436Z,9.70
2017-12-04T15:15:09.202Z,6.45
2017-12-04T15:17:36.860Z,7.97
2017-12-04T15:20:05.262Z,8.93
2017-12-04T15:22:32.871Z,9.27
2017-12-04T15:25:01.283Z,10.55
2017-12-04T15:27:30.362Z,10.55
2017-12-04T15:29:58.213Z,10.50
2017-12-04T15:32:25.832Z,6.87
2017-12-04T15:34:53.459Z,8.77
2017-12-04T15:37:21.886Z,6.93
2017-12-04T15:39:49.767Z,6.65
2017-12-04T15:42:18.319Z,8.68
2017-12-04T15:44:45.953Z,6.70
2017-12-04T15:47:13.566Z,7.80
2017-12-04T15:49:41.214Z,6.32
2017-12-04T15:52:08.835Z,6.55
2017-12-04T15:54:37.249Z,10.50
2017-12-04T15:57:04.861Z,8.65
2017-12-04T15:59:32.525Z,5.35
2017-12-04T16:02:00.192Z,5.22
2017-12-04T16:04:27.896Z,6.90
2017-12-04T16:06:55.564Z,10.73
2017-12-04T16:09:23.190Z,4.97
2017-12-04T16:11:50.805Z,4.65
2017-12-04T16:14:18.514Z,5.62
2017-12-04T16:16:46.181Z,11.68
2017-12-04T16:19:14.140Z,13.23
2017-12-04T16:21:41.829Z,17.90
2017-12-04T16:24:10.528Z,9.43
2017-12-04T16:26:38.352Z,10.23
2017-12-04T16:29:05.974Z,6.22
2017-12-04T16:31:34.384Z,7.45
2017-12-04T16:34:02.022Z,10.57
2017-12-04T16:36:29.639Z,10.40
2017-12-04T16:38:58.207Z,7.35
2017-12-04T16:41:26.590Z,5.28
2017-12-04T16:43:54.234Z,6.32
2017-12-04T16:46:21.898Z,6.97
2017-12-04T16:48:49.677Z,19.67
2017-12-04T16:51:17.313Z,9.65
2017-12-04T16:53:44.921Z,9.15
2017-12-04T16:56:13.328Z,5.55
2017-12-04T16:58:40.941Z,4.20
2017-12-04T17:01:08.707Z,6.78
2017-12-04T17:03:36.355Z,9.52
2017-12-04T17:06:04.067Z,4.53
2017-12-04T17:08:32.466Z,9.27
2017-12-04T17:11:00.076Z,9.55
2017-12-04T17:13:28.683Z,5.22
2017-12-04T17:15:56.329Z,8.52
2017-12-04T17:18:23.948Z,7.05
2017-12-04T17:20:51.613Z,14.82
2017-12-04T17:23:19.388Z,10.88
2017-12-04T17:25:47.002Z,13.45
2017-12-04T17:28:14.659Z,10.07
2017-12-04T17:30:42.273Z,9.43
2017-12-04T17:33:09.978Z,10.25
2017-12-04T17:35:37.641Z,11.95
2017-12-04T17:38:05.462Z,15.30
2017-12-04T17:40:33.119Z,18.48
2017-12-04T17:43:00.732Z,12.75
2017-12-04T17:45:32.258Z,14.43
2017-12-04T17:47:59.919Z,16.37
2017-12-04T17:50:27.540Z,12.85
2017-12-04T17:52:55.252Z,15.70
2017-12-04T17:55:22.909Z,11.82
2017-12-04T17:57:50.603Z,13.60
2017-12-04T18:00:18.379Z,14.27
2017-12-04T18:02:46.018Z,8.25
2017-12-04T18:05:13.680Z,14.10
2017-12-04T18:07:41.655Z,17.98
2017-12-04T18:10:09.446Z,10.68
2017-12-04T18:12:37.067Z,13.98
2017-12-04T18:15:05.518Z,14.32
2017-12-04T18:17:33.174Z,18.62
2017-12-04T18:20:01.554Z,15.98
2017-12-04T18:22:30.086Z,13.07
2017-12-04T18:24:58.750Z,26.85
2017-12-04T18:27:26.377Z,19.25
2017-12-04T18:29:54.038Z,15.07
2017-12-04T18:32:21.673Z,12.10
2017-12-04T18:34:49.461Z,14.57
2017-12-04T18:37:17.892Z,11.68
2017-12-04T18:39:45.522Z,23.73
2017-12-04T18:42:13.166Z,18.60
2017-12-04T18:44:40.773Z,17.62
2017-12-04T18:47:08.476Z,14.23
2017-12-04T18:49:36.093Z,16.95
2017-12-04T18:52:03.701Z,16.30
2017-12-04T18:54:32.126Z,20.25
2017-12-04T18:59:35.869Z,16.05
2017-12-04T19:02:03.505Z,20.23
2017-12-04T19:04:31.230Z,17.35
2017-12-04T19:06:58.882Z,20.02
2017-12-04T19:09:26.493Z,23.30
2017-12-04T19:11:54.190Z,14.07
2017-12-04T19:14:22.590Z,21.60
2017-12-04T19:16:50.249Z,13.32
2017-12-04T19:19:17.932Z,14.35
2017-12-04T19:21:45.592Z,18.95
2017-12-04T19:24:14.022Z,13.57
2017-12-04T19:26:41.713Z,23.60
2017-12-04T19:29:09.445Z,15.20
2017-12-04T19:31:37.104Z,16.12
2017-12-04T19:34:04.741Z,24.63
2017-12-04T19:36:32.436Z,13.62
2017-12-04T19:39:00.147Z,17.23
2017-12-04T19:41:28.811Z,19.17
2017-12-04T19:43:56.586Z,17.70
2017-12-04T19:46:24.194Z,16.45
2017-12-04T19:48:51.862Z,11.00
2017-12-04T19:51:20.279Z,18.70
2017-12-04T19:53:47.917Z,15.52
2017-12-04T19:56:15.623Z,17.62
2017-12-04T19:58:44.031Z,22.42
2017-12-04T20:01:11.682Z,18.10
2017-12-04T20:03:40.062Z,17.98
2017-12-04T20:06:07.724Z,22.27
2017-12-04T20:08:36.179Z,22.27
2017-12-04T20:11:03.822Z,18.87
2017-12-04T20:13:31.497Z,24.95
2017-12-04T20:15:59.898Z,28.25
2017-12-04T20:18:27.523Z,21.15
2017-12-04T20:20:55.940Z,17.95
2017-12-04T20:23:23.574Z,24.40
2017-12-04T20:25:51.226Z,15.07
2017-12-04T20:28:18.850Z,24.33
2017-12-04T20:30:46.548Z,21.40
2017-12-04T20:33:14.225Z,18.48
2017-12-04T20:35:41.912Z,16.05
2017-12-04T20:38:09.771Z,18.77
2017-12-04T20:40:37.454Z,18.35
2017-12-04T20:43:05.090Z,20.12
2017-12-04T20:45:32.750Z,21.45
2017-12-04T20:48:01.183Z,18.90
2017-12-04T20:50:28.852Z,21.60
2017-12-04T20:52:56.467Z,19.12
2017-12-04T20:55:24.131Z,18.50
2017-12-04T20:57:51.788Z,17.62
2017-12-04T21:00:19.484Z,12.50
2017-12-04T21:02:47.149Z,17.95
2017-12-04T21:05:14.781Z,17.35
2017-12-04T21:07:51.803Z,21.92
2017-12-04T21:10:31.199Z,15.23
2017-12-04T21:13:10.690Z,18.42
2017-12-04T21:15:50.214Z,20.23
2017-12-04T21:18:17.902Z,19.80
2017-12-04T21:20:45.537Z,18.90
2017-12-04T21:23:13.174Z,16.48
2017-12-04T21:25:40.842Z,13.52
2017-12-04T21:28:08.505Z,21.98
2017-12-04T21:30:36.933Z,20.10
2017-12-04T21:33:04.569Z,18.27
2017-12-04T21:35:32.195Z,17.02
2017-12-04T21:37:59.991Z,23.38
2017-12-04T21:40:28.709Z,20.55
2017-12-04T21:42:56.402Z,17.48
2017-12-04T21:45:24.093Z,19.77
2017-12-04T21:47:51.737Z,21.37
2017-12-04T21:50:20.166Z,22.05
2017-12-04T21:52:48.443Z,17.77
2017-12-04T21:55:16.130Z,18.40
2017-12-04T21:57:43.750Z,20.98
2017-12-04T22:00:12.155Z,14.07
2017-12-04T22:02:40.714Z,22.58
2017-12-04T22:05:08.415Z,15.25
2017-12-04T22:07:36.075Z,14.07
2017-12-04T22:10:03.780Z,19.73
2017-12-04T22:12:31.394Z,18.83
2017-12-04T22:14:59.054Z,12.65
2017-12-04T22:17:27.917Z,11.80
2017-12-04T22:19:55.606Z,18.00
2017-12-04T22:22:23.240Z,16.12
2017-12-04T22:24:50.870Z,15.52
2017-12-04T22:27:18.745Z,13.27
2017-12-04T22:29:46.358Z,11.85
2017-12-04T22:32:14.075Z,8.43
2017-12-04T22:34:42.465Z,16.58
2017-12-04T22:37:10.843Z,13.00
2017-12-04T22:39:38.703Z,15.40
2017-12-04T22:42:07.165Z,14.52
2017-12-04T22:44:34.818Z,18.77
2017-12-04T22:47:02.450Z,11.40
2017-12-04T22:49:30.088Z,11.05
2017-12-04T22:51:57.808Z,13.80
2017-12-04T22:54:26.232Z,6.90
2017-12-04T22:56:53.896Z,16.08
2017-12-04T22:59:21.533Z,9.82
2017-12-04T23:01:49.387Z,12.27
2017-12-04T23:04:17.045Z,10.93
2017-12-04T23:06:44.725Z,8.45
2017-12-04T23:09:12.388Z,13.00
2017-12-04T23:11:40.108Z,7.97
2017-12-04T23:14:08.759Z,10.57
2017-12-04T23:16:36.402Z,12.00
2017-12-04T23:19:04.020Z,16.10
2017-12-04T23:21:31.713Z,10.43
2017-12-04T23:23:59.658Z,8.73
2017-12-04T23:26:27.286Z,8.90
2017-12-04T23:28:54.936Z,8.32
2017-12-04T23:31:22.555Z,8.05
2017-12-04T23:33:50.213Z,5.90
2017-12-04T23:36:17.885Z,8.38
2017-12-04T23:38:45.518Z,11.02
2017-12-04T23:41:13.171Z,10.30
2017-12-04T23:43:40.810Z,12.70
2017-12-04T23:46:08.694Z,12.48
2017-12-04T23:48:37.095Z,7.85
2017-12-04T23:51:04.705Z,7.37
2017-12-04T23:53:32.387Z,5.60
2017-12-04T23:56:00.019Z,3.42
2017-12-04T23:58:27.823Z,10.93
